createdAt,value
2019-01-30T00:00:29.655Z,12.17
2019-01-30T00:03:01.135Z,17.50
2019-01-30T00:05:32.211Z,15.30
2019-01-30T00:08:03.762Z,14.70
2019-01-30T00:10:35.032Z,15.03
2019-01-30T00:13:06.745Z,11.07
2019-01-30T00:15:38.030Z,14.63
2019-01-30T00:18:09.142Z,13.50
2019-01-30T00:20:40.415Z,16.73
2019-01-30T00:23:11.878Z,11.07
2019-01-30T00:25:42.953Z,12.07
2019-01-30T00:28:13.919Z,15.80
2019-01-30T00:30:45.276Z,12.50
2019-01-30T00:33:16.421Z,17.27
2019-01-30T00:35:47.621Z,14.47
2019-01-30T00:38:18.939Z,12.20
2019-01-30T00:40:50.382Z,16.63
2019-01-30T00:43:21.853Z,17.40
2019-01-30T00:45:53.046Z,10.93
2019-01-30T00:48:24.274Z,13.27
2019-01-30T00:50:55.654Z,12.23
2019-01-30T00:53:26.859Z,18.37
2019-01-30T00:55:58.132Z,13.67
2019-01-30T00:58:29.738Z,11.00
2019-01-30T01:01:01.011Z,12.73
2019-01-30T01:03:33.728Z,12.80
2019-01-30T01:06:09.643Z,12.03
2019-01-30T01:08:40.994Z,14.27
2019-01-30T01:11:14.805Z,14.50
2019-01-30T01:13:46.082Z,12.10
2019-01-30T01:16:17.350Z,11.37
2019-01-30T01:18:48.649Z,12.60
2019-01-30T01:21:19.918Z,11.33
2019-01-30T01:23:51.370Z,13.47
2019-01-30T01:26:22.650Z,14.30
2019-01-30T01:28:53.609Z,15.33
2019-01-30T01:31:24.961Z,13.90
2019-01-30T01:33:56.503Z,11.57
2019-01-30T01:36:27.786Z,15.77
2019-01-30T01:38:59.007Z,14.33
2019-01-30T01:41:29.967Z,11.67
2019-01-30T01:44:00.938Z,13.27
2019-01-30T01:46:32.134Z,12.27
2019-01-30T01:49:04.918Z,12.23
2019-01-30T01:51:35.938Z,14.07
2019-01-30T01:54:06.906Z,13.43
2019-01-30T01:56:38.114Z,14.13
2019-01-30T01:59:09.494Z,13.87
2019-01-30T02:01:40.506Z,13.83
2019-01-30T02:04:11.785Z,9.97
2019-01-30T02:06:43.054Z,14.63
2019-01-30T02:09:15.310Z,11.57
2019-01-30T02:11:46.870Z,10.57
2019-01-30T02:14:18.666Z,12.03
2019-01-30T02:16:49.947Z,13.43
2019-01-30T02:19:21.157Z,13.20
2019-01-30T02:21:52.702Z,14.57
2019-01-30T02:24:24.046Z,12.27
2019-01-30T02:26:55.254Z,14.73
2019-01-30T02:29:26.214Z,15.00
2019-01-30T02:31:57.242Z,14.63
2019-01-30T02:34:28.678Z,13.40
2019-01-30T02:36:59.882Z,12.87
2019-01-30T02:39:31.110Z,11.50
2019-01-30T02:42:02.398Z,15.83
2019-01-30T02:44:33.417Z,10.97
2019-01-30T02:47:04.690Z,9.83
2019-01-30T02:49:35.902Z,9.47
2019-01-30T02:52:07.388Z,11.20
2019-01-30T02:54:38.614Z,11.73
2019-01-30T02:57:09.826Z,11.07
2019-01-30T02:59:40.798Z,11.93
2019-01-30T03:02:18.815Z,13.40
2019-01-30T03:04:51.212Z,15.33
2019-01-30T03:07:22.173Z,9.10
2019-01-30T03:09:53.631Z,13.97
2019-01-30T03:12:25.069Z,10.50
2019-01-30T03:14:56.277Z,12.67
2019-01-30T03:17:27.589Z,11.63
2019-01-30T03:19:58.914Z,12.03
2019-01-30T03:22:30.178Z,12.10
2019-01-30T03:25:01.217Z,11.40
2019-01-30T03:27:32.169Z,10.57
2019-01-30T03:30:03.524Z,12.37
2019-01-30T03:32:34.604Z,10.40
2019-01-30T03:35:06.354Z,9.33
2019-01-30T03:37:37.571Z,11.37
2019-01-30T03:40:10.439Z,9.97
2019-01-30T03:42:42.518Z,13.13
2019-01-30T03:45:16.159Z,12.63
2019-01-30T03:47:47.713Z,15.57
2019-01-30T03:50:19.361Z,11.63
2019-01-30T03:52:50.378Z,12.90
2019-01-30T03:55:22.026Z,10.30
2019-01-30T03:57:53.038Z,10.07
2019-01-30T04:00:25.440Z,12.77
2019-01-30T04:02:56.774Z,12.87
2019-01-30T04:05:28.083Z,10.83
2019-01-30T04:07:59.802Z,13.80
2019-01-30T04:10:30.909Z,11.60
2019-01-30T04:13:02.175Z,12.97
2019-01-30T04:15:33.277Z,11.77
2019-01-30T04:18:04.742Z,14.10
2019-01-30T04:20:36.026Z,12.67
2019-01-30T04:23:07.322Z,12.13
2019-01-30T04:25:38.552Z,11.10
2019-01-30T04:28:09.570Z,11.83
2019-01-30T04:30:41.126Z,13.43
2019-01-30T04:33:12.350Z,17.83
2019-01-30T04:35:43.738Z,12.73
2019-01-30T04:38:15.186Z,13.37
2019-01-30T04:40:46.163Z,13.03
2019-01-30T04:43:17.362Z,14.67
2019-01-30T04:45:48.585Z,14.57
2019-01-30T04:48:19.538Z,12.53
2019-01-30T04:50:50.762Z,12.90
2019-01-30T04:53:21.951Z,13.13
2019-01-30T04:55:53.239Z,12.93
2019-01-30T04:58:24.458Z,12.00
2019-01-30T05:00:55.762Z,14.33
2019-01-30T05:03:28.672Z,15.68
2019-01-30T05:06:00.121Z,13.93
2019-01-30T05:08:31.334Z,14.83
2019-01-30T05:11:02.295Z,12.90
2019-01-30T05:13:33.506Z,13.77
2019-01-30T05:16:04.794Z,13.10
2019-01-30T05:18:36.334Z,12.33
2019-01-30T05:21:07.554Z,11.93
2019-01-30T05:23:38.750Z,11.60
2019-01-30T05:26:09.855Z,17.70
2019-01-30T05:28:41.117Z,13.03
2019-01-30T05:31:12.622Z,13.07
2019-01-30T05:33:44.082Z,12.17
2019-01-30T05:36:16.818Z,14.97
2019-01-30T05:38:48.023Z,12.33
2019-01-30T05:41:19.318Z,10.07
2019-01-30T05:43:50.586Z,11.67
2019-01-30T05:46:21.869Z,13.27
2019-01-30T05:48:52.811Z,12.87
2019-01-30T05:51:24.020Z,14.87
2019-01-30T05:53:55.223Z,12.13
2019-01-30T05:56:26.500Z,15.03
2019-01-30T05:58:57.508Z,14.73
2019-01-30T06:01:28.606Z,12.93
2019-01-30T06:04:01.115Z,11.40
2019-01-30T06:06:32.328Z,13.97
2019-01-30T06:09:05.165Z,13.90
2019-01-30T06:11:36.711Z,11.40
2019-01-30T06:14:07.987Z,13.10
2019-01-30T06:16:39.762Z,12.50
2019-01-30T06:19:11.030Z,16.10
2019-01-30T06:21:42.236Z,10.53
2019-01-30T06:24:13.453Z,11.97
2019-01-30T06:26:45.567Z,16.77
2019-01-30T06:29:16.756Z,14.10
2019-01-30T06:31:48.074Z,13.57
2019-01-30T06:34:19.278Z,12.90
2019-01-30T06:36:50.686Z,15.67
2019-01-30T06:39:21.971Z,13.23
2019-01-30T06:41:52.940Z,15.63
2019-01-30T06:44:24.210Z,12.00
2019-01-30T06:46:55.226Z,15.40
2019-01-30T06:49:26.419Z,14.03
2019-01-30T06:51:57.831Z,12.07
2019-01-30T06:54:29.111Z,17.00
2019-01-30T06:57:00.559Z,16.73
2019-01-30T06:59:32.023Z,13.50
2019-01-30T07:02:03.635Z,14.53
2019-01-30T07:04:35.419Z,12.27
2019-01-30T07:07:06.799Z,16.47
2019-01-30T07:09:38.308Z,14.33
2019-01-30T07:12:09.730Z,15.00
2019-01-30T07:14:41.462Z,14.73
2019-01-30T07:17:12.908Z,14.37
2019-01-30T07:19:44.131Z,17.50
2019-01-30T07:22:15.242Z,14.70
2019-01-30T07:24:46.390Z,15.10
2019-01-30T07:27:18.999Z,14.47
2019-01-30T07:29:50.447Z,12.37
2019-01-30T07:32:21.780Z,13.73
2019-01-30T07:34:53.032Z,13.07
2019-01-30T07:37:25.451Z,13.40
2019-01-30T07:39:56.739Z,15.40
2019-01-30T07:42:28.158Z,15.93
2019-01-30T07:44:59.831Z,14.13
2019-01-30T07:47:31.234Z,14.40
2019-01-30T07:50:02.589Z,15.43
2019-01-30T07:52:34.028Z,14.73
2019-01-30T07:55:06.330Z,13.33
2019-01-30T07:57:37.806Z,13.43
2019-01-30T08:00:30.439Z,14.73
2019-01-30T08:03:01.976Z,14.47
2019-01-30T08:05:33.359Z,14.60
2019-01-30T08:08:05.979Z,12.93
2019-01-30T08:10:37.082Z,18.03
2019-01-30T08:13:08.367Z,15.57
2019-01-30T08:15:40.910Z,12.23
2019-01-30T08:18:12.348Z,15.57
2019-01-30T08:20:43.698Z,15.50
2019-01-30T08:23:15.069Z,14.00
2019-01-30T08:25:47.694Z,18.13
2019-01-30T08:28:19.412Z,14.80
2019-01-30T08:30:50.983Z,15.87
2019-01-30T08:33:22.238Z,16.27
2019-01-30T08:35:53.534Z,16.73
2019-01-30T08:38:25.170Z,17.37
2019-01-30T08:40:56.386Z,15.23
2019-01-30T08:43:27.906Z,12.97
2019-01-30T08:45:59.118Z,16.37
2019-01-30T08:48:30.315Z,13.43
2019-01-30T08:51:01.562Z,16.87
2019-01-30T08:53:32.874Z,14.57
2019-01-30T08:56:04.435Z,15.40
2019-01-30T08:58:35.998Z,16.77
2019-01-30T09:01:07.442Z,13.17
2019-01-30T09:03:40.144Z,14.27
2019-01-30T09:06:11.603Z,16.37
2019-01-30T09:08:42.820Z,14.63
2019-01-30T09:11:14.037Z,12.90
2019-01-30T09:13:45.426Z,16.37
2019-01-30T09:16:16.412Z,13.43
2019-01-30T09:18:47.918Z,12.90
2019-01-30T09:21:19.230Z,14.83
2019-01-30T09:23:50.439Z,13.73
2019-01-30T09:26:23.340Z,14.10
2019-01-30T09:28:54.562Z,13.80
2019-01-30T09:31:26.726Z,13.10
2019-01-30T09:33:58.017Z,17.60
2019-01-30T09:36:29.207Z,14.57
2019-01-30T09:39:00.523Z,15.53
2019-01-30T09:41:31.748Z,17.33
2019-01-30T09:44:03.064Z,15.23
2019-01-30T09:46:34.376Z,13.30
2019-01-30T09:49:05.493Z,15.87
2019-01-30T09:51:38.348Z,15.83
2019-01-30T09:54:09.458Z,14.37
2019-01-30T09:56:40.479Z,14.37
2019-01-30T09:59:11.526Z,11.50
2019-01-30T10:01:42.722Z,12.57
2019-01-30T10:04:14.224Z,11.73
2019-01-30T10:06:45.427Z,15.20
2019-01-30T10:09:16.946Z,15.77
2019-01-30T10:11:48.214Z,16.47
2019-01-30T10:14:19.875Z,14.03
2019-01-30T10:16:51.150Z,19.03
2019-01-30T10:19:22.390Z,14.77
2019-01-30T10:21:53.590Z,17.40
2019-01-30T10:24:24.931Z,13.50
2019-01-30T10:26:56.758Z,14.57
2019-01-30T10:29:28.034Z,11.70
2019-01-30T10:32:00.038Z,12.40
2019-01-30T10:34:31.254Z,13.23
2019-01-30T10:37:03.755Z,14.87
2019-01-30T10:39:34.946Z,14.57
2019-01-30T10:42:06.299Z,12.73
2019-01-30T10:44:37.702Z,15.17
2019-01-30T10:47:08.655Z,13.10
2019-01-30T10:49:39.850Z,14.93
2019-01-30T10:52:11.067Z,14.63
2019-01-30T10:54:42.363Z,14.30
2019-01-30T10:57:13.715Z,15.30
2019-01-30T10:59:45.235Z,17.23
2019-01-30T11:02:16.651Z,15.33
2019-01-30T11:04:48.008Z,17.17
2019-01-30T11:07:19.210Z,14.00
2019-01-30T11:09:50.450Z,13.77
2019-01-30T11:12:21.727Z,15.70
2019-01-30T11:14:53.351Z,14.53
2019-01-30T11:17:25.174Z,15.30
2019-01-30T11:19:56.727Z,15.28
2019-01-30T11:22:27.914Z,13.70
2019-01-30T11:24:59.294Z,14.90
2019-01-30T11:27:30.838Z,12.33
2019-01-30T11:30:01.801Z,15.13
2019-01-30T11:32:33.094Z,13.60
2019-01-30T11:35:04.977Z,13.53
2019-01-30T11:37:36.507Z,11.30
2019-01-30T11:40:09.459Z,13.17
2019-01-30T11:42:40.730Z,12.60
2019-01-30T11:45:18.018Z,16.13
2019-01-30T11:47:49.589Z,11.90
2019-01-30T11:50:20.723Z,15.67
2019-01-30T11:52:52.081Z,13.33
2019-01-30T11:55:23.416Z,12.47
2019-01-30T11:57:54.749Z,12.40
2019-01-30T12:00:29.644Z,13.03
2019-01-30T12:03:02.406Z,13.93
2019-01-30T12:05:33.805Z,13.93
2019-01-30T12:08:07.213Z,13.13
2019-01-30T12:10:38.729Z,12.93
2019-01-30T12:13:09.782Z,13.40
2019-01-30T12:15:40.926Z,11.83
2019-01-30T12:18:13.078Z,12.20
2019-01-30T12:20:45.421Z,12.80
2019-01-30T12:23:17.577Z,12.43
2019-01-30T12:25:48.618Z,14.53
2019-01-30T12:28:20.266Z,14.70
2019-01-30T12:30:53.270Z,12.80
2019-01-30T12:33:26.013Z,12.53
2019-01-30T12:35:57.970Z,12.07
2019-01-30T12:38:28.950Z,13.13
2019-01-30T12:41:00.882Z,14.47
2019-01-30T12:43:32.447Z,14.90
2019-01-30T12:46:03.663Z,11.23
2019-01-30T12:48:34.762Z,13.73
2019-01-30T12:51:05.793Z,14.33
2019-01-30T12:53:37.928Z,12.57
2019-01-30T12:56:09.342Z,11.30
2019-01-30T12:58:40.307Z,13.33
2019-01-30T13:01:12.434Z,14.93
2019-01-30T13:03:43.654Z,12.23
2019-01-30T13:06:17.829Z,14.80
2019-01-30T13:08:49.051Z,11.80
2019-01-30T13:11:21.442Z,14.23
2019-01-30T13:13:53.171Z,14.07
2019-01-30T13:16:24.314Z,12.03
2019-01-30T13:18:55.803Z,12.60
2019-01-30T13:21:27.347Z,11.37
2019-01-30T13:23:58.582Z,12.80
2019-01-30T13:26:31.017Z,13.93
2019-01-30T13:29:01.982Z,13.57
2019-01-30T13:31:33.102Z,16.10
2019-01-30T13:34:04.397Z,15.43
2019-01-30T13:36:35.887Z,14.27
2019-01-30T13:39:08.662Z,11.50
2019-01-30T13:41:42.740Z,13.37
2019-01-30T13:44:14.046Z,11.37
2019-01-30T13:46:45.226Z,11.20
2019-01-30T13:49:16.284Z,14.37
2019-01-30T13:51:47.874Z,11.33
2019-01-30T13:54:18.966Z,11.57
2019-01-30T13:56:50.275Z,12.83
2019-01-30T13:59:21.820Z,12.47
2019-01-30T14:01:52.911Z,12.70
2019-01-30T14:04:24.007Z,12.60
2019-01-30T14:06:55.489Z,11.13
2019-01-30T14:09:27.205Z,11.40
2019-01-30T14:11:58.951Z,12.20
2019-01-30T14:14:31.724Z,11.73
2019-01-30T14:17:03.130Z,13.50
2019-01-30T14:19:34.219Z,12.83
2019-01-30T14:22:05.752Z,14.27
2019-01-30T14:24:37.034Z,12.80
2019-01-30T14:27:08.471Z,12.73
2019-01-30T14:29:39.520Z,19.20
2019-01-30T14:32:10.849Z,13.60
2019-01-30T14:34:42.329Z,14.20
2019-01-30T14:37:13.815Z,12.67
2019-01-30T14:39:45.263Z,13.47
2019-01-30T14:42:17.331Z,13.73
2019-01-30T14:44:48.678Z,13.03
2019-01-30T14:47:19.956Z,13.67
2019-01-30T14:49:51.432Z,14.40
2019-01-30T14:52:22.707Z,13.67
2019-01-30T14:54:54.047Z,15.93
2019-01-30T14:57:25.146Z,13.47
2019-01-30T14:59:56.346Z,12.17
2019-01-30T15:02:27.734Z,18.60
2019-01-30T15:04:58.702Z,15.17
2019-01-30T15:07:29.649Z,12.73
2019-01-30T15:10:00.927Z,13.43
2019-01-30T15:12:32.042Z,15.53
2019-01-30T15:15:03.336Z,15.97
2019-01-30T15:17:34.446Z,16.13
2019-01-30T15:20:09.069Z,14.90
2019-01-30T15:22:40.287Z,15.43
2019-01-30T15:25:12.722Z,13.57
2019-01-30T15:27:44.022Z,12.00
2019-01-30T15:30:20.791Z,15.27
2019-01-30T15:32:52.472Z,12.63
2019-01-30T15:35:33.315Z,15.77
2019-01-30T15:37:57.070Z,17.73
2019-01-30T15:40:28.572Z,17.63
2019-01-30T15:43:00.268Z,14.77
2019-01-30T15:45:31.755Z,14.17
2019-01-30T15:48:03.117Z,13.17
2019-01-30T15:50:35.115Z,15.33
2019-01-30T15:53:09.667Z,15.50
2019-01-30T15:55:41.014Z,13.87
2019-01-30T15:58:12.744Z,14.33
2019-01-30T16:00:53.358Z,15.37
2019-01-30T16:03:24.654Z,16.37
2019-01-30T16:05:55.981Z,14.60
2019-01-30T16:08:27.303Z,14.27
2019-01-30T16:10:58.282Z,15.20
2019-01-30T16:13:29.592Z,13.97
2019-01-30T16:16:02.879Z,17.53
2019-01-30T16:18:34.155Z,13.83
2019-01-30T16:21:05.526Z,14.30
2019-01-30T16:23:36.810Z,16.30
2019-01-30T16:26:09.353Z,13.50
2019-01-30T16:28:40.763Z,14.67
2019-01-30T16:31:11.956Z,15.47
2019-01-30T16:33:43.977Z,14.17
2019-01-30T16:36:16.596Z,13.47
2019-01-30T16:38:48.114Z,14.63
2019-01-30T16:41:19.659Z,13.60
2019-01-30T16:43:51.000Z,12.77
2019-01-30T16:46:22.737Z,13.57
2019-01-30T16:48:53.682Z,12.30
2019-01-30T16:51:24.737Z,11.00
2019-01-30T16:53:57.382Z,12.97
2019-01-30T16:56:28.995Z,16.43
2019-01-30T16:59:00.271Z,13.60
2019-01-30T17:01:31.550Z,14.57
2019-01-30T17:04:03.111Z,13.47
2019-01-30T17:06:34.334Z,15.07
2019-01-30T17:09:08.179Z,13.43
2019-01-30T17:11:39.986Z,14.00
2019-01-30T17:14:11.070Z,14.53
2019-01-30T17:16:42.435Z,14.60
2019-01-30T17:19:13.662Z,16.73
2019-01-30T17:21:44.782Z,14.73
2019-01-30T17:24:18.394Z,13.33
2019-01-30T17:26:49.366Z,14.97
2019-01-30T17:29:22.703Z,13.80
2019-01-30T17:31:53.249Z,16.00
2019-01-30T17:34:24.823Z,10.37
2019-01-30T17:36:56.573Z,12.63
2019-01-30T17:39:27.867Z,10.07
2019-01-30T17:41:59.158Z,11.47
2019-01-30T17:44:32.400Z,16.07
2019-01-30T17:47:03.542Z,17.43
2019-01-30T17:49:34.773Z,16.87
2019-01-30T17:52:06.163Z,17.43
2019-01-30T17:54:38.063Z,18.93
2019-01-30T17:57:09.414Z,17.37
2019-01-30T17:59:49.826Z,18.33
2019-01-30T18:02:21.426Z,17.73
2019-01-30T18:04:53.014Z,20.37
2019-01-30T18:07:24.659Z,21.87
2019-01-30T18:09:55.955Z,19.43
2019-01-30T18:12:27.381Z,20.03
2019-01-30T18:14:59.283Z,23.40
2019-01-30T18:17:31.621Z,23.43
2019-01-30T18:20:02.990Z,24.77
2019-01-30T18:22:34.323Z,19.77
2019-01-30T18:25:06.300Z,22.53
2019-01-30T18:27:37.604Z,21.37
2019-01-30T18:30:11.541Z,22.53
2019-01-30T18:32:44.139Z,21.90
2019-01-30T18:35:15.565Z,21.20
2019-01-30T18:37:48.275Z,22.40
2019-01-30T18:40:21.059Z,22.57
2019-01-30T18:42:52.658Z,22.30
2019-01-30T18:45:25.130Z,25.40
2019-01-30T18:47:56.461Z,24.40
2019-01-30T18:50:27.746Z,26.40
2019-01-30T18:52:59.138Z,25.90
2019-01-30T18:55:31.155Z,24.47
2019-01-30T18:58:02.588Z,26.53
2019-01-30T19:00:43.406Z,26.57
2019-01-30T19:03:20.350Z,28.10
2019-01-30T19:05:51.788Z,28.37
2019-01-30T19:08:23.067Z,30.07
2019-01-30T19:10:54.053Z,30.27
2019-01-30T19:13:25.546Z,27.77
2019-01-30T19:15:56.818Z,28.57
2019-01-30T19:18:28.162Z,30.57
2019-01-30T19:21:01.170Z,26.40
2019-01-30T19:23:32.627Z,31.47
2019-01-30T19:26:05.099Z,29.90
2019-01-30T19:28:36.769Z,34.87
2019-01-30T19:31:08.594Z,34.55
2019-01-30T19:33:39.715Z,31.43
2019-01-30T19:36:10.799Z,27.90
2019-01-30T19:38:43.097Z,31.03
2019-01-30T19:41:14.355Z,30.07
2019-01-30T19:43:45.450Z,28.83
2019-01-30T19:46:17.450Z,31.00
2019-01-30T19:48:48.400Z,31.73
2019-01-30T19:51:22.444Z,31.07
2019-01-30T19:53:53.533Z,30.93
2019-01-30T19:56:24.594Z,27.67
2019-01-30T19:58:56.638Z,31.37
2019-01-30T20:01:35.988Z,32.73
2019-01-30T20:04:00.682Z,29.97
2019-01-30T20:06:31.974Z,30.97
2019-01-30T20:09:06.358Z,29.47
2019-01-30T20:11:44.978Z,32.97
2019-01-30T20:14:16.267Z,29.00
2019-01-30T20:16:47.719Z,30.27
2019-01-30T20:19:18.850Z,29.00
2019-01-30T20:21:50.382Z,25.47
2019-01-30T20:24:21.566Z,27.97
2019-01-30T20:26:52.815Z,25.80
2019-01-30T20:29:24.125Z,30.47
2019-01-30T20:31:55.598Z,36.87
2019-01-30T20:34:26.874Z,31.20
2019-01-30T20:37:00.071Z,27.77
2019-01-30T20:39:31.168Z,24.77
2019-01-30T20:42:02.394Z,27.50
2019-01-30T20:44:34.003Z,31.67
2019-01-30T20:47:05.742Z,28.13
2019-01-30T20:49:36.726Z,29.47
2019-01-30T20:52:07.842Z,27.10
2019-01-30T20:54:39.203Z,25.00
2019-01-30T20:57:10.346Z,26.07
2019-01-30T20:59:41.667Z,26.40
2019-01-30T21:02:13.043Z,28.20
2019-01-30T21:04:44.379Z,26.37
2019-01-30T21:07:15.342Z,23.00
2019-01-30T21:09:46.554Z,25.33
2019-01-30T21:12:18.851Z,24.87
2019-01-30T21:14:50.139Z,26.67
2019-01-30T21:17:21.374Z,26.73
2019-01-30T21:19:52.662Z,22.93
2019-01-30T21:22:23.890Z,27.83
2019-01-30T21:24:55.110Z,24.00
2019-01-30T21:27:26.344Z,23.23
2019-01-30T21:29:57.562Z,23.93
2019-01-30T21:32:28.858Z,25.63
2019-01-30T21:35:00.096Z,25.10
2019-01-30T21:37:31.669Z,23.33
2019-01-30T21:40:02.961Z,24.03
2019-01-30T21:42:34.251Z,22.30
2019-01-30T21:45:06.519Z,22.50
2019-01-30T21:47:37.774Z,20.07
2019-01-30T21:50:09.992Z,19.13
2019-01-30T21:52:41.502Z,22.20
2019-01-30T21:55:19.386Z,23.37
2019-01-30T21:57:50.406Z,21.57
2019-01-30T22:00:23.925Z,19.90
2019-01-30T22:02:55.343Z,24.00
2019-01-30T22:05:27.227Z,18.10
2019-01-30T22:08:01.017Z,20.37
2019-01-30T22:10:31.870Z,16.63
2019-01-30T22:13:03.107Z,18.97
2019-01-30T22:15:34.478Z,17.03
2019-01-30T22:18:05.774Z,15.10
2019-01-30T22:20:37.070Z,15.80
2019-01-30T22:23:08.726Z,18.93
2019-01-30T22:25:40.085Z,19.77
2019-01-30T22:28:11.330Z,13.20
2019-01-30T22:30:43.534Z,13.63
2019-01-30T22:33:16.162Z,16.20
2019-01-30T22:35:47.451Z,15.30
2019-01-30T22:38:18.676Z,15.40
2019-01-30T22:40:49.975Z,16.23
2019-01-30T22:43:21.187Z,20.83
2019-01-30T22:45:52.207Z,21.83
2019-01-30T22:48:23.534Z,14.33
2019-01-30T22:50:56.426Z,16.23
2019-01-30T22:53:27.806Z,10.37
2019-01-30T22:55:59.085Z,11.63
2019-01-30T22:58:31.745Z,11.53
2019-01-30T23:01:23.186Z,11.90
2019-01-30T23:04:22.119Z,11.10
2019-01-30T23:07:19.314Z,13.40
2019-01-30T23:10:36.298Z,15.37
2019-01-30T23:13:29.137Z,16.57
2019-01-30T23:16:26.626Z,20.40
2019-01-30T23:19:22.114Z,23.47
2019-01-30T23:22:50.015Z,18.73
2019-01-30T23:25:42.338Z,20.27
2019-01-30T23:28:26.943Z,22.67
2019-01-30T23:31:25.473Z,22.20
2019-01-30T23:34:29.858Z,22.90
2019-01-30T23:37:21.427Z,24.57
2019-01-30T23:40:14.544Z,24.03
2019-01-30T23:43:17.693Z,24.17
2019-01-30T23:46:14.522Z,22.97
2019-01-30T23:49:30.579Z,25.93
2019-01-30T23:52:43.830Z,21.40
2019-01-30T23:55:29.529Z,27.37
2019-01-30T23:58:45.238Z,20.73
